sensor_id;sensor_type;location;lat;lon;timestamp;P1;durP1;ratioP1;P2;durP2;ratioP2
16770;SDS011;8503;52.472;13.344;2023-02-28T00:00:27;4.82;;;2.20;;
16770;SDS011;8503;52.472;13.344;2023-02-28T00:01:51;3.42;;;1.90;;
16770;SDS011;8503;52.472;13.344;2023-02-28T00:03:14;7.80;;;2.03;;
16770;SDS011;8503;52.472;13.344;2023-02-28T00:04:37;11.20;;;2.35;;
16770;SDS011;8503;52.472;13.344;2023-02-28T00:06:01;3.80;;;1.85;;
16770;SDS011;8503;52.472;13.344;2023-02-28T00:07:25;2.72;;;1.88;;
16770;SDS011;8503;52.472;13.344;2023-02-28T00:08:48;3.60;;;1.73;;
16770;SDS011;8503;52.472;13.344;2023-02-28T00:10:13;2.47;;;1.90;;
16770;SDS011;8503;52.472;13.344;2023-02-28T00:11:36;5.40;;;2.00;;
16770;SDS011;8503;52.472;13.344;2023-02-28T00:13:00;4.25;;;1.75;;
16770;SDS011;8503;52.472;13.344;2023-02-28T00:14:25;4.00;;;2.10;;
16770;SDS011;8503;52.472;13.344;2023-02-28T00:16:00;5.68;;;2.20;;
16770;SDS011;8503;52.472;13.344;2023-02-28T00:17:24;2.55;;;1.50;;
16770;SDS011;8503;52.472;13.344;2023-02-28T00:18:46;2.17;;;1.60;;
16770;SDS011;8503;52.472;13.344;2023-02-28T00:20:10;3.47;;;1.67;;
16770;SDS011;8503;52.472;13.344;2023-02-28T00:21:35;3.97;;;1.90;;
16770;SDS011;8503;52.472;13.344;2023-02-28T00:23:01;3.65;;;1.67;;
16770;SDS011;8503;52.472;13.344;2023-02-28T00:24:25;5.63;;;2.20;;
16770;SDS011;8503;52.472;13.344;2023-02-28T00:25:49;8.70;;;2.25;;
16770;SDS011;8503;52.472;13.344;2023-02-28T00:27:12;3.72;;;1.98;;
16770;SDS011;8503;52.472;13.344;2023-02-28T00:28:35;3.35;;;2.17;;
16770;SDS011;8503;52.472;13.344;2023-02-28T00:30:00;4.25;;;1.67;;
16770;SDS011;8503;52.472;13.344;2023-02-28T00:31:22;5.00;;;2.22;;
16770;SDS011;8503;52.472;13.344;2023-02-28T00:32:46;3.63;;;2.08;;
16770;SDS011;8503;52.472;13.344;2023-02-28T00:34:09;5.45;;;2.38;;
16770;SDS011;8503;52.472;13.344;2023-02-28T00:35:32;3.25;;;2.05;;
16770;SDS011;8503;52.472;13.344;2023-02-28T00:36:56;8.93;;;2.38;;
16770;SDS011;8503;52.472;13.344;2023-02-28T00:38:18;4.60;;;2.08;;
16770;SDS011;8503;52.472;13.344;2023-02-28T00:39:42;5.35;;;1.83;;
16770;SDS011;8503;52.472;13.344;2023-02-28T00:41:04;5.03;;;2.50;;
16770;SDS011;8503;52.472;13.344;2023-02-28T00:42:28;4.10;;;2.30;;
16770;SDS011;8503;52.472;13.344;2023-02-28T00:43:51;4.10;;;2.10;;
16770;SDS011;8503;52.472;13.344;2023-02-28T00:45:16;4.85;;;2.60;;
16770;SDS011;8503;52.472;13.344;2023-02-28T00:46:38;3.13;;;1.90;;
16770;SDS011;8503;52.472;13.344;2023-02-28T00:48:02;4.85;;;2.55;;
16770;SDS011;8503;52.472;13.344;2023-02-28T00:49:26;6.55;;;2.90;;
16770;SDS011;8503;52.472;13.344;2023-02-28T00:50:50;5.75;;;2.42;;
16770;SDS011;8503;52.472;13.344;2023-02-28T00:52:13;6.15;;;2.60;;
16770;SDS011;8503;52.472;13.344;2023-02-28T00:53:37;4.95;;;2.55;;
16770;SDS011;8503;52.472;13.344;2023-02-28T00:55:00;6.88;;;2.42;;
16770;SDS011;8503;52.472;13.344;2023-02-28T00:56:24;6.25;;;2.30;;
16770;SDS011;8503;52.472;13.344;2023-02-28T00:57:47;5.65;;;2.42;;
16770;SDS011;8503;52.472;13.344;2023-02-28T00:59:09;4.05;;;2.15;;
16770;SDS011;8503;52.472;13.344;2023-02-28T01:00:34;7.90;;;2.63;;
16770;SDS011;8503;52.472;13.344;2023-02-28T01:01:58;9.68;;;3.10;;
16770;SDS011;8503;52.472;13.344;2023-02-28T01:03:21;5.60;;;2.67;;
16770;SDS011;8503;52.472;13.344;2023-02-28T01:04:45;3.90;;;2.72;;
16770;SDS011;8503;52.472;13.344;2023-02-28T01:06:08;3.65;;;2.10;;
16770;SDS011;8503;52.472;13.344;2023-02-28T01:07:31;7.00;;;2.95;;
16770;SDS011;8503;52.472;13.344;2023-02-28T01:08:55;9.73;;;2.92;;
16770;SDS011;8503;52.472;13.344;2023-02-28T01:10:17;8.65;;;2.85;;
16770;SDS011;8503;52.472;13.344;2023-02-28T01:11:42;5.40;;;2.60;;
16770;SDS011;8503;52.472;13.344;2023-02-28T01:13:05;6.75;;;2.53;;
16770;SDS011;8503;52.472;13.344;2023-02-28T01:14:29;6.28;;;2.60;;
16770;SDS011;8503;52.472;13.344;2023-02-28T01:15:54;6.13;;;2.78;;
16770;SDS011;8503;52.472;13.344;2023-02-28T01:17:17;4.00;;;2.10;;
16770;SDS011;8503;52.472;13.344;2023-02-28T01:18:40;5.07;;;2.42;;
16770;SDS011;8503;52.472;13.344;2023-02-28T01:20:04;5.47;;;2.60;;
16770;SDS011;8503;52.472;13.344;2023-02-28T01:21:28;4.30;;;2.60;;
16770;SDS011;8503;52.472;13.344;2023-02-28T01:23:00;2.50;;;1.83;;
16770;SDS011;8503;52.472;13.344;2023-02-28T01:24:23;6.97;;;2.60;;
16770;SDS011;8503;52.472;13.344;2023-02-28T01:25:47;3.20;;;2.33;;
16770;SDS011;8503;52.472;13.344;2023-02-28T01:27:09;4.95;;;2.58;;
16770;SDS011;8503;52.472;13.344;2023-02-28T01:28:34;3.50;;;2.28;;
16770;SDS011;8503;52.472;13.344;2023-02-28T01:29:57;7.18;;;2.40;;
16770;SDS011;8503;52.472;13.344;2023-02-28T01:31:22;5.70;;;2.78;;
16770;SDS011;8503;52.472;13.344;2023-02-28T01:32:46;4.72;;;2.67;;
16770;SDS011;8503;52.472;13.344;2023-02-28T01:34:10;4.88;;;2.42;;
16770;SDS011;8503;52.472;13.344;2023-02-28T01:35:33;4.88;;;2.45;;
16770;SDS011;8503;52.472;13.344;2023-02-28T01:36:56;6.45;;;3.10;;
16770;SDS011;8503;52.472;13.344;2023-02-28T01:38:20;5.35;;;2.80;;
16770;SDS011;8503;52.472;13.344;2023-02-28T01:39:43;6.75;;;2.80;;
16770;SDS011;8503;52.472;13.344;2023-02-28T01:41:07;6.68;;;2.47;;
16770;SDS011;8503;52.472;13.344;2023-02-28T01:42:31;6.70;;;2.85;;
16770;SDS011;8503;52.472;13.344;2023-02-28T01:43:56;3.78;;;2.33;;
16770;SDS011;8503;52.472;13.344;2023-02-28T01:45:21;8.75;;;3.28;;
16770;SDS011;8503;52.472;13.344;2023-02-28T01:46:47;5.38;;;2.50;;
16770;SDS011;8503;52.472;13.344;2023-02-28T01:48:10;6.43;;;2.65;;
16770;SDS011;8503;52.472;13.344;2023-02-28T01:49:34;5.40;;;2.72;;
16770;SDS011;8503;52.472;13.344;2023-02-28T01:50:58;7.00;;;2.85;;
16770;SDS011;8503;52.472;13.344;2023-02-28T01:52:25;4.00;;;2.40;;
16770;SDS011;8503;52.472;13.344;2023-02-28T01:53:49;6.55;;;2.95;;
16770;SDS011;8503;52.472;13.344;2023-02-28T01:55:15;5.57;;;2.80;;
16770;SDS011;8503;52.472;13.344;2023-02-28T01:56:41;5.38;;;3.08;;
16770;SDS011;8503;52.472;13.344;2023-02-28T01:58:06;6.65;;;3.05;;
16770;SDS011;8503;52.472;13.344;2023-02-28T01:59:32;5.95;;;3.17;;
16770;SDS011;8503;52.472;13.344;2023-02-28T02:00:58;5.95;;;2.50;;
16770;SDS011;8503;52.472;13.344;2023-02-28T02:02:25;6.65;;;2.83;;
16770;SDS011;8503;52.472;13.344;2023-02-28T02:03:48;5.10;;;2.35;;
16770;SDS011;8503;52.472;13.344;2023-02-28T02:05:17;7.82;;;2.92;;
16770;SDS011;8503;52.472;13.344;2023-02-28T02:06:43;6.60;;;2.63;;
16770;SDS011;8503;52.472;13.344;2023-02-28T02:08:09;6.53;;;2.88;;
16770;SDS011;8503;52.472;13.344;2023-02-28T02:09:33;9.95;;;2.80;;
16770;SDS011;8503;52.472;13.344;2023-02-28T02:10:57;5.85;;;2.83;;
16770;SDS011;8503;52.472;13.344;2023-02-28T02:12:24;3.85;;;2.30;;
16770;SDS011;8503;52.472;13.344;2023-02-28T02:13:56;8.65;;;3.25;;
16770;SDS011;8503;52.472;13.344;2023-02-28T02:15:41;5.22;;;2.33;;
16770;SDS011;8503;52.472;13.344;2023-02-28T02:17:10;6.63;;;2.42;;
16770;SDS011;8503;52.472;13.344;2023-02-28T02:18:42;5.43;;;3.15;;
16770;SDS011;8503;52.472;13.344;2023-02-28T02:20:16;6.22;;;2.60;;
16770;SDS011;8503;52.472;13.344;2023-02-28T02:22:07;7.68;;;2.50;;
16770;SDS011;8503;52.472;13.344;2023-02-28T02:23:54;5.93;;;2.92;;
16770;SDS011;8503;52.472;13.344;2023-02-28T02:25:51;9.35;;;3.30;;
16770;SDS011;8503;52.472;13.344;2023-02-28T02:27:20;5.82;;;3.42;;
16770;SDS011;8503;52.472;13.344;2023-02-28T02:28:56;6.85;;;3.55;;
16770;SDS011;8503;52.472;13.344;2023-02-28T02:31:02;6.05;;;2.90;;
16770;SDS011;8503;52.472;13.344;2023-02-28T02:32:58;6.47;;;3.33;;
16770;SDS011;8503;52.472;13.344;2023-02-28T02:34:43;9.25;;;3.55;;
16770;SDS011;8503;52.472;13.344;2023-02-28T02:36:17;7.60;;;2.92;;
16770;SDS011;8503;52.472;13.344;2023-02-28T02:37:46;5.28;;;2.78;;
16770;SDS011;8503;52.472;13.344;2023-02-28T02:39:13;7.18;;;3.35;;
16770;SDS011;8503;52.472;13.344;2023-02-28T02:40:42;5.50;;;3.53;;
16770;SDS011;8503;52.472;13.344;2023-02-28T02:42:09;6.07;;;2.95;;
16770;SDS011;8503;52.472;13.344;2023-02-28T02:43:36;8.25;;;2.95;;
16770;SDS011;8503;52.472;13.344;2023-02-28T02:45:05;5.57;;;2.80;;
16770;SDS011;8503;52.472;13.344;2023-02-28T02:46:32;6.95;;;2.97;;
16770;SDS011;8503;52.472;13.344;2023-02-28T02:47:56;7.25;;;3.72;;
16770;SDS011;8503;52.472;13.344;2023-02-28T02:49:22;5.10;;;3.08;;
16770;SDS011;8503;52.472;13.344;2023-02-28T02:50:50;5.90;;;2.97;;
16770;SDS011;8503;52.472;13.344;2023-02-28T02:52:16;4.68;;;2.95;;
16770;SDS011;8503;52.472;13.344;2023-02-28T02:53:44;5.22;;;2.80;;
16770;SDS011;8503;52.472;13.344;2023-02-28T02:55:12;6.35;;;3.08;;
16770;SDS011;8503;52.472;13.344;2023-02-28T02:56:36;5.40;;;2.78;;
16770;SDS011;8503;52.472;13.344;2023-02-28T02:58:02;4.53;;;2.85;;
16770;SDS011;8503;52.472;13.344;2023-02-28T02:59:27;5.15;;;2.10;;
16770;SDS011;8503;52.472;13.344;2023-02-28T03:00:52;6.43;;;3.05;;
16770;SDS011;8503;52.472;13.344;2023-02-28T03:02:17;5.25;;;3.08;;
16770;SDS011;8503;52.472;13.344;2023-02-28T03:03:41;7.82;;;3.20;;
16770;SDS011;8503;52.472;13.344;2023-02-28T03:05:05;7.13;;;2.83;;
16770;SDS011;8503;52.472;13.344;2023-02-28T03:06:32;8.63;;;3.00;;
16770;SDS011;8503;52.472;13.344;2023-02-28T03:07:56;7.85;;;3.42;;
16770;SDS011;8503;52.472;13.344;2023-02-28T03:09:19;8.70;;;3.67;;
16770;SDS011;8503;52.472;13.344;2023-02-28T03:10:43;9.80;;;3.15;;
16770;SDS011;8503;52.472;13.344;2023-02-28T03:12:09;17.50;;;4.35;;
16770;SDS011;8503;52.472;13.344;2023-02-28T03:13:39;10.10;;;3.45;;
16770;SDS011;8503;52.472;13.344;2023-02-28T03:15:08;8.80;;;2.92;;
16770;SDS011;8503;52.472;13.344;2023-02-28T03:16:36;3.95;;;2.53;;
16770;SDS011;8503;52.472;13.344;2023-02-28T03:18:08;6.90;;;3.17;;
16770;SDS011;8503;52.472;13.344;2023-02-28T03:19:38;11.70;;;3.45;;
16770;SDS011;8503;52.472;13.344;2023-02-28T03:21:10;6.65;;;2.92;;
16770;SDS011;8503;52.472;13.344;2023-02-28T03:22:48;6.95;;;3.20;;
16770;SDS011;8503;52.472;13.344;2023-02-28T03:24:15;8.60;;;3.00;;
16770;SDS011;8503;52.472;13.344;2023-02-28T03:25:44;5.20;;;3.47;;
16770;SDS011;8503;52.472;13.344;2023-02-28T03:27:16;8.45;;;3.00;;
16770;SDS011;8503;52.472;13.344;2023-02-28T03:28:43;8.95;;;3.03;;
16770;SDS011;8503;52.472;13.344;2023-02-28T03:30:15;5.00;;;2.90;;
16770;SDS011;8503;52.472;13.344;2023-02-28T03:31:47;5.30;;;3.28;;
16770;SDS011;8503;52.472;13.344;2023-02-28T03:33:12;5.80;;;2.88;;
16770;SDS011;8503;52.472;13.344;2023-02-28T03:34:39;8.30;;;3.15;;
16770;SDS011;8503;52.472;13.344;2023-02-28T03:36:04;6.63;;;3.30;;
16770;SDS011;8503;52.472;13.344;2023-02-28T03:37:31;7.60;;;3.67;;
16770;SDS011;8503;52.472;13.344;2023-02-28T03:39:00;11.30;;;3.33;;
16770;SDS011;8503;52.472;13.344;2023-02-28T03:40:27;6.95;;;3.53;;
16770;SDS011;8503;52.472;13.344;2023-02-28T03:41:54;8.30;;;3.58;;
16770;SDS011;8503;52.472;13.344;2023-02-28T03:43:23;6.43;;;3.22;;
16770;SDS011;8503;52.472;13.344;2023-02-28T03:44:49;5.68;;;3.42;;
16770;SDS011;8503;52.472;13.344;2023-02-28T03:46:14;3.60;;;2.65;;
16770;SDS011;8503;52.472;13.344;2023-02-28T03:47:44;5.40;;;3.10;;
16770;SDS011;8503;52.472;13.344;2023-02-28T03:49:11;5.53;;;3.08;;
16770;SDS011;8503;52.472;13.344;2023-02-28T03:50:39;5.90;;;2.63;;
16770;SDS011;8503;52.472;13.344;2023-02-28T03:52:04;4.70;;;2.72;;
16770;SDS011;8503;52.472;13.344;2023-02-28T03:53:29;6.20;;;2.85;;
16770;SDS011;8503;52.472;13.344;2023-02-28T03:54:58;4.68;;;2.80;;
16770;SDS011;8503;52.472;13.344;2023-02-28T03:56:29;7.30;;;2.83;;
16770;SDS011;8503;52.472;13.344;2023-02-28T03:57:56;8.55;;;3.25;;
16770;SDS011;8503;52.472;13.344;2023-02-28T03:59:25;5.40;;;3.40;;
16770;SDS011;8503;52.472;13.344;2023-02-28T04:00:50;12.13;;;3.50;;
16770;SDS011;8503;52.472;13.344;2023-02-28T04:02:17;6.13;;;3.10;;
16770;SDS011;8503;52.472;13.344;2023-02-28T04:03:40;9.80;;;3.40;;
16770;SDS011;8503;52.472;13.344;2023-02-28T04:05:03;7.13;;;3.35;;
16770;SDS011;8503;52.472;13.344;2023-02-28T04:06:27;7.43;;;3.85;;
16770;SDS011;8503;52.472;13.344;2023-02-28T04:07:54;5.53;;;2.58;;
16770;SDS011;8503;52.472;13.344;2023-02-28T04:09:26;10.38;;;3.30;;
16770;SDS011;8503;52.472;13.344;2023-02-28T04:10:53;6.03;;;3.35;;
16770;SDS011;8503;52.472;13.344;2023-02-28T04:12:18;8.98;;;3.10;;
16770;SDS011;8503;52.472;13.344;2023-02-28T04:13:44;9.70;;;3.72;;
16770;SDS011;8503;52.472;13.344;2023-02-28T04:15:08;6.90;;;3.22;;
16770;SDS011;8503;52.472;13.344;2023-02-28T04:16:32;7.05;;;3.05;;
16770;SDS011;8503;52.472;13.344;2023-02-28T04:17:57;9.38;;;3.40;;
16770;SDS011;8503;52.472;13.344;2023-02-28T04:19:20;5.85;;;3.03;;
16770;SDS011;8503;52.472;13.344;2023-02-28T04:20:43;6.32;;;2.85;;
16770;SDS011;8503;52.472;13.344;2023-02-28T04:22:07;9.10;;;3.70;;
16770;SDS011;8503;52.472;13.344;2023-02-28T04:23:31;4.82;;;3.10;;
16770;SDS011;8503;52.472;13.344;2023-02-28T04:24:53;8.13;;;4.25;;
16770;SDS011;8503;52.472;13.344;2023-02-28T04:26:18;13.35;;;3.85;;
16770;SDS011;8503;52.472;13.344;2023-02-28T04:27:41;8.27;;;3.33;;
16770;SDS011;8503;52.472;13.344;2023-02-28T04:29:06;6.28;;;3.25;;
16770;SDS011;8503;52.472;13.344;2023-02-28T04:30:30;7.05;;;3.28;;
16770;SDS011;8503;52.472;13.344;2023-02-28T04:31:53;7.10;;;3.03;;
16770;SDS011;8503;52.472;13.344;2023-02-28T04:33:19;6.97;;;3.47;;
16770;SDS011;8503;52.472;13.344;2023-02-28T04:34:43;6.25;;;3.38;;
16770;SDS011;8503;52.472;13.344;2023-02-28T04:36:06;6.00;;;3.30;;
16770;SDS011;8503;52.472;13.344;2023-02-28T04:37:30;13.13;;;4.40;;
16770;SDS011;8503;52.472;13.344;2023-02-28T04:38:56;10.10;;;3.30;;
16770;SDS011;8503;52.472;13.344;2023-02-28T04:40:19;9.57;;;3.22;;
16770;SDS011;8503;52.472;13.344;2023-02-28T04:41:44;8.18;;;3.38;;
16770;SDS011;8503;52.472;13.344;2023-02-28T04:43:07;8.10;;;3.63;;
16770;SDS011;8503;52.472;13.344;2023-02-28T04:44:30;9.90;;;3.53;;
16770;SDS011;8503;52.472;13.344;2023-02-28T04:45:54;9.32;;;3.65;;
16770;SDS011;8503;52.472;13.344;2023-02-28T04:47:18;6.85;;;3.30;;
16770;SDS011;8503;52.472;13.344;2023-02-28T04:48:42;9.27;;;3.72;;
16770;SDS011;8503;52.472;13.344;2023-02-28T04:50:05;9.93;;;3.83;;
16770;SDS011;8503;52.472;13.344;2023-02-28T04:51:30;8.82;;;3.70;;
16770;SDS011;8503;52.472;13.344;2023-02-28T04:52:53;8.00;;;3.30;;
16770;SDS011;8503;52.472;13.344;2023-02-28T04:54:16;6.15;;;3.75;;
16770;SDS011;8503;52.472;13.344;2023-02-28T04:55:40;9.65;;;3.42;;
16770;SDS011;8503;52.472;13.344;2023-02-28T04:57:05;9.65;;;3.70;;
16770;SDS011;8503;52.472;13.344;2023-02-28T04:58:29;7.82;;;3.90;;
16770;SDS011;8503;52.472;13.344;2023-02-28T04:59:52;5.47;;;2.92;;
16770;SDS011;8503;52.472;13.344;2023-02-28T05:01:17;9.75;;;4.32;;
16770;SDS011;8503;52.472;13.344;2023-02-28T05:02:42;7.20;;;3.65;;
16770;SDS011;8503;52.472;13.344;2023-02-28T05:04:05;8.25;;;3.45;;
16770;SDS011;8503;52.472;13.344;2023-02-28T05:05:29;5.57;;;3.15;;
16770;SDS011;8503;52.472;13.344;2023-02-28T05:06:52;12.30;;;4.35;;
16770;SDS011;8503;52.472;13.344;2023-02-28T05:08:16;9.93;;;3.63;;
16770;SDS011;8503;52.472;13.344;2023-02-28T05:09:38;6.68;;;3.20;;
16770;SDS011;8503;52.472;13.344;2023-02-28T05:11:02;8.13;;;3.30;;
16770;SDS011;8503;52.472;13.344;2023-02-28T05:12:28;5.95;;;3.38;;
16770;SDS011;8503;52.472;13.344;2023-02-28T05:13:52;9.80;;;3.28;;
16770;SDS011;8503;52.472;13.344;2023-02-28T05:15:15;8.45;;;4.15;;
16770;SDS011;8503;52.472;13.344;2023-02-28T05:16:39;9.70;;;3.38;;
16770;SDS011;8503;52.472;13.344;2023-02-28T05:18:02;12.02;;;3.78;;
16770;SDS011;8503;52.472;13.344;2023-02-28T05:19:26;7.85;;;4.25;;
16770;SDS011;8503;52.472;13.344;2023-02-28T05:20:49;9.98;;;4.05;;
16770;SDS011;8503;52.472;13.344;2023-02-28T05:22:13;6.50;;;3.33;;
16770;SDS011;8503;52.472;13.344;2023-02-28T05:23:37;5.85;;;3.50;;
16770;SDS011;8503;52.472;13.344;2023-02-28T05:25:00;7.75;;;3.40;;
16770;SDS011;8503;52.472;13.344;2023-02-28T05:26:23;11.35;;;4.25;;
16770;SDS011;8503;52.472;13.344;2023-02-28T05:27:47;8.60;;;3.55;;
16770;SDS011;8503;52.472;13.344;2023-02-28T05:29:11;6.97;;;3.83;;
16770;SDS011;8503;52.472;13.344;2023-02-28T05:30:35;8.63;;;3.97;;
16770;SDS011;8503;52.472;13.344;2023-02-28T05:31:58;7.45;;;4.13;;
16770;SDS011;8503;52.472;13.344;2023-02-28T05:33:22;11.13;;;4.05;;
16770;SDS011;8503;52.472;13.344;2023-02-28T05:34:45;11.13;;;4.20;;
16770;SDS011;8503;52.472;13.344;2023-02-28T05:36:10;6.97;;;3.50;;
16770;SDS011;8503;52.472;13.344;2023-02-28T05:37:32;9.15;;;3.85;;
16770;SDS011;8503;52.472;13.344;2023-02-28T05:38:56;9.35;;;3.67;;
16770;SDS011;8503;52.472;13.344;2023-02-28T05:40:19;11.43;;;4.45;;
16770;SDS011;8503;52.472;13.344;2023-02-28T05:41:43;11.60;;;4.05;;
16770;SDS011;8503;52.472;13.344;2023-02-28T05:43:09;9.20;;;4.07;;
16770;SDS011;8503;52.472;13.344;2023-02-28T05:44:33;8.07;;;3.53;;
16770;SDS011;8503;52.472;13.344;2023-02-28T05:45:56;8.98;;;4.05;;
16770;SDS011;8503;52.472;13.344;2023-02-28T05:47:19;10.32;;;3.92;;
16770;SDS011;8503;52.472;13.344;2023-02-28T05:48:45;12.00;;;4.15;;
16770;SDS011;8503;52.472;13.344;2023-02-28T05:50:09;6.80;;;3.55;;
16770;SDS011;8503;52.472;13.344;2023-02-28T05:51:32;6.45;;;3.70;;
16770;SDS011;8503;52.472;13.344;2023-02-28T05:52:58;10.65;;;3.78;;
16770;SDS011;8503;52.472;13.344;2023-02-28T05:54:21;10.80;;;3.78;;
16770;SDS011;8503;52.472;13.344;2023-02-28T05:55:45;8.70;;;3.28;;
16770;SDS011;8503;52.472;13.344;2023-02-28T05:57:08;9.98;;;4.22;;
16770;SDS011;8503;52.472;13.344;2023-02-28T05:58:45;6.43;;;4.00;;
16770;SDS011;8503;52.472;13.344;2023-02-28T06:00:10;8.05;;;3.83;;
16770;SDS011;8503;52.472;13.344;2023-02-28T06:01:34;7.93;;;3.67;;
16770;SDS011;8503;52.472;13.344;2023-02-28T06:02:58;13.10;;;3.90;;
16770;SDS011;8503;52.472;13.344;2023-02-28T06:04:24;6.50;;;4.07;;
16770;SDS011;8503;52.472;13.344;2023-02-28T06:05:52;11.43;;;4.20;;
16770;SDS011;8503;52.472;13.344;2023-02-28T06:07:16;9.15;;;4.07;;
16770;SDS011;8503;52.472;13.344;2023-02-28T06:08:39;10.10;;;3.95;;
16770;SDS011;8503;52.472;13.344;2023-02-28T06:10:05;8.38;;;4.18;;
16770;SDS011;8503;52.472;13.344;2023-02-28T06:11:30;15.20;;;5.10;;
16770;SDS011;8503;52.472;13.344;2023-02-28T06:12:53;10.50;;;4.23;;
16770;SDS011;8503;52.472;13.344;2023-02-28T06:14:18;9.18;;;4.18;;
16770;SDS011;8503;52.472;13.344;2023-02-28T06:15:41;11.07;;;4.38;;
16770;SDS011;8503;52.472;13.344;2023-02-28T06:17:04;12.57;;;4.68;;
16770;SDS011;8503;52.472;13.344;2023-02-28T06:18:28;10.88;;;4.55;;
16770;SDS011;8503;52.472;13.344;2023-02-28T06:19:51;10.40;;;4.30;;
16770;SDS011;8503;52.472;13.344;2023-02-28T06:21:15;10.90;;;4.63;;
16770;SDS011;8503;52.472;13.344;2023-02-28T06:22:38;11.77;;;4.47;;
16770;SDS011;8503;52.472;13.344;2023-02-28T06:24:02;11.45;;;4.28;;
16770;SDS011;8503;52.472;13.344;2023-02-28T06:25:26;9.45;;;3.83;;
16770;SDS011;8503;52.472;13.344;2023-02-28T06:26:51;12.43;;;4.63;;
16770;SDS011;8503;52.472;13.344;2023-02-28T06:28:13;7.18;;;4.20;;
16770;SDS011;8503;52.472;13.344;2023-02-28T06:29:38;10.30;;;4.40;;
16770;SDS011;8503;52.472;13.344;2023-02-28T06:31:05;9.32;;;4.60;;
16770;SDS011;8503;52.472;13.344;2023-02-28T06:32:30;12.55;;;5.47;;
16770;SDS011;8503;52.472;13.344;2023-02-28T06:33:53;7.22;;;3.90;;
16770;SDS011;8503;52.472;13.344;2023-02-28T06:35:16;8.27;;;4.47;;
16770;SDS011;8503;52.472;13.344;2023-02-28T06:36:40;11.20;;;3.70;;
16770;SDS011;8503;52.472;13.344;2023-02-28T06:38:05;20.25;;;5.40;;
16770;SDS011;8503;52.472;13.344;2023-02-28T06:39:29;11.55;;;4.72;;
16770;SDS011;8503;52.472;13.344;2023-02-28T06:40:53;9.05;;;4.65;;
16770;SDS011;8503;52.472;13.344;2023-02-28T06:42:16;9.63;;;4.63;;
16770;SDS011;8503;52.472;13.344;2023-02-28T06:43:41;9.60;;;4.05;;
16770;SDS011;8503;52.472;13.344;2023-02-28T06:45:07;9.93;;;4.45;;
16770;SDS011;8503;52.472;13.344;2023-02-28T06:46:31;10.48;;;4.93;;
16770;SDS011;8503;52.472;13.344;2023-02-28T06:47:54;11.60;;;4.63;;
16770;SDS011;8503;52.472;13.344;2023-02-28T06:49:19;9.48;;;4.40;;
16770;SDS011;8503;52.472;13.344;2023-02-28T06:50:42;6.70;;;4.47;;
16770;SDS011;8503;52.472;13.344;2023-02-28T06:52:06;7.65;;;4.38;;
16770;SDS011;8503;52.472;13.344;2023-02-28T06:53:30;17.08;;;4.72;;
16770;SDS011;8503;52.472;13.344;2023-02-28T06:54:54;10.95;;;4.72;;
16770;SDS011;8503;52.472;13.344;2023-02-28T06:56:22;12.57;;;5.40;;
16770;SDS011;8503;52.472;13.344;2023-02-28T06:57:45;9.43;;;4.85;;
16770;SDS011;8503;52.472;13.344;2023-02-28T06:59:09;10.95;;;5.07;;
16770;SDS011;8503;52.472;13.344;2023-02-28T07:00:34;9.45;;;4.82;;
16770;SDS011;8503;52.472;13.344;2023-02-28T07:01:58;10.23;;;5.45;;
16770;SDS011;8503;52.472;13.344;2023-02-28T07:03:23;15.13;;;6.35;;
16770;SDS011;8503;52.472;13.344;2023-02-28T07:04:46;9.32;;;4.80;;
16770;SDS011;8503;52.472;13.344;2023-02-28T07:06:10;9.60;;;4.85;;
16770;SDS011;8503;52.472;13.344;2023-02-28T07:07:33;9.95;;;5.03;;
16770;SDS011;8503;52.472;13.344;2023-02-28T07:09:06;10.43;;;4.43;;
16770;SDS011;8503;52.472;13.344;2023-02-28T07:10:30;11.00;;;5.22;;
16770;SDS011;8503;52.472;13.344;2023-02-28T07:11:55;11.40;;;5.50;;
16770;SDS011;8503;52.472;13.344;2023-02-28T07:13:18;8.80;;;5.05;;
16770;SDS011;8503;52.472;13.344;2023-02-28T07:14:41;11.38;;;5.15;;
16770;SDS011;8503;52.472;13.344;2023-02-28T07:16:06;10.15;;;5.93;;
16770;SDS011;8503;52.472;13.344;2023-02-28T07:17:30;15.75;;;6.50;;
16770;SDS011;8503;52.472;13.344;2023-02-28T07:18:54;12.73;;;5.85;;
16770;SDS011;8503;52.472;13.344;2023-02-28T07:20:17;10.10;;;5.72;;
16770;SDS011;8503;52.472;13.344;2023-02-28T07:21:41;14.15;;;6.18;;
16770;SDS011;8503;52.472;13.344;2023-02-28T07:23:04;11.63;;;5.30;;
16770;SDS011;8503;52.472;13.344;2023-02-28T07:24:27;11.77;;;5.57;;
16770;SDS011;8503;52.472;13.344;2023-02-28T07:25:50;11.20;;;5.70;;
16770;SDS011;8503;52.472;13.344;2023-02-28T07:27:14;9.15;;;5.05;;
16770;SDS011;8503;52.472;13.344;2023-02-28T07:28:45;7.57;;;5.20;;
16770;SDS011;8503;52.472;13.344;2023-02-28T07:30:10;11.82;;;5.85;;
16770;SDS011;8503;52.472;13.344;2023-02-28T07:31:35;10.05;;;5.85;;
16770;SDS011;8503;52.472;13.344;2023-02-28T07:32:59;11.25;;;5.57;;
16770;SDS011;8503;52.472;13.344;2023-02-28T07:34:23;9.20;;;5.18;;
16770;SDS011;8503;52.472;13.344;2023-02-28T07:35:47;8.50;;;5.25;;
16770;SDS011;8503;52.472;13.344;2023-02-28T07:37:10;11.98;;;5.15;;
16770;SDS011;8503;52.472;13.344;2023-02-28T07:38:34;9.57;;;5.43;;
16770;SDS011;8503;52.472;13.344;2023-02-28T07:39:59;9.73;;;5.07;;
16770;SDS011;8503;52.472;13.344;2023-02-28T07:41:22;8.25;;;5.07;;
16770;SDS011;8503;52.472;13.344;2023-02-28T07:42:49;9.30;;;5.95;;
16770;SDS011;8503;52.472;13.344;2023-02-28T07:44:12;8.48;;;4.32;;
16770;SDS011;8503;52.472;13.344;2023-02-28T07:45:36;7.53;;;4.35;;
16770;SDS011;8503;52.472;13.344;2023-02-28T07:47:01;7.95;;;5.22;;
16770;SDS011;8503;52.472;13.344;2023-02-28T07:48:24;8.80;;;4.53;;
16770;SDS011;8503;52.472;13.344;2023-02-28T07:49:48;6.30;;;3.70;;
16770;SDS011;8503;52.472;13.344;2023-02-28T07:51:11;6.82;;;4.43;;
16770;SDS011;8503;52.472;13.344;2023-02-28T07:52:35;6.72;;;3.50;;
16770;SDS011;8503;52.472;13.344;2023-02-28T07:53:59;6.97;;;3.95;;
16770;SDS011;8503;52.472;13.344;2023-02-28T07:55:22;5.15;;;3.05;;
16770;SDS011;8503;52.472;13.344;2023-02-28T07:56:46;7.15;;;3.10;;
16770;SDS011;8503;52.472;13.344;2023-02-28T07:58:09;8.88;;;3.97;;
16770;SDS011;8503;52.472;13.344;2023-02-28T07:59:33;5.57;;;3.20;;
16770;SDS011;8503;52.472;13.344;2023-02-28T08:00:56;4.32;;;3.05;;
16770;SDS011;8503;52.472;13.344;2023-02-28T08:02:21;7.15;;;3.47;;
16770;SDS011;8503;52.472;13.344;2023-02-28T08:03:45;5.68;;;3.13;;
16770;SDS011;8503;52.472;13.344;2023-02-28T08:05:08;8.35;;;3.72;;
16770;SDS011;8503;52.472;13.344;2023-02-28T08:06:32;5.55;;;3.25;;
16770;SDS011;8503;52.472;13.344;2023-02-28T08:07:56;5.43;;;3.15;;
16770;SDS011;8503;52.472;13.344;2023-02-28T08:09:20;5.10;;;3.40;;
16770;SDS011;8503;52.472;13.344;2023-02-28T08:10:43;8.02;;;3.50;;
16770;SDS011;8503;52.472;13.344;2023-02-28T08:12:07;5.57;;;3.50;;
16770;SDS011;8503;52.472;13.344;2023-02-28T08:13:32;9.13;;;3.40;;
16770;SDS011;8503;52.472;13.344;2023-02-28T08:14:55;5.65;;;3.25;;
16770;SDS011;8503;52.472;13.344;2023-02-28T08:16:18;4.97;;;3.28;;
16770;SDS011;8503;52.472;13.344;2023-02-28T08:17:45;6.47;;;2.83;;
16770;SDS011;8503;52.472;13.344;2023-02-28T08:19:09;12.85;;;3.60;;
16770;SDS011;8503;52.472;13.344;2023-02-28T08:20:32;6.43;;;3.55;;
16770;SDS011;8503;52.472;13.344;2023-02-28T08:21:56;9.88;;;3.28;;
16770;SDS011;8503;52.472;13.344;2023-02-28T08:23:19;8.50;;;3.08;;
16770;SDS011;8503;52.472;13.344;2023-02-28T08:24:43;4.38;;;2.45;;
16770;SDS011;8503;52.472;13.344;2023-02-28T08:26:06;5.88;;;3.05;;
16770;SDS011;8503;52.472;13.344;2023-02-28T08:27:29;10.75;;;3.20;;
16770;SDS011;8503;52.472;13.344;2023-02-28T08:28:52;6.78;;;3.35;;
16770;SDS011;8503;52.472;13.344;2023-02-28T08:30:17;7.00;;;2.83;;
16770;SDS011;8503;52.472;13.344;2023-02-28T08:31:42;3.50;;;2.70;;
16770;SDS011;8503;52.472;13.344;2023-02-28T08:33:07;8.48;;;2.95;;